sensor_id;sensor_type;location;lat;lon;timestamp;temperature;humidity
35796;DHT22;21916;52.428;13.302;2023-10-19T00:00:42;7.50;99.90
35796;DHT22;21916;52.428;13.302;2023-10-19T00:03:12;7.50;99.90
35796;DHT22;21916;52.428;13.302;2023-10-19T00:05:38;7.40;99.90
35796;DHT22;21916;52.428;13.302;2023-10-19T00:08:06;7.50;99.90
35796;DHT22;21916;52.428;13.302;2023-10-19T00:10:42;7.50;99.90
35796;DHT22;21916;52.428;13.302;2023-10-19T00:13:09;7.40;99.90
35796;DHT22;21916;52.428;13.302;2023-10-19T00:15:43;7.40;99.90
35796;DHT22;21916;52.428;13.302;2023-10-19T00:18:14;7.50;99.90
35796;DHT22;21916;52.428;13.302;2023-10-19T00:21:01;7.40;99.90
35796;DHT22;21916;52.428;13.302;2023-10-19T00:23:37;7.40;99.90
35796;DHT22;21916;52.428;13.302;2023-10-19T00:26:05;7.50;99.90
35796;DHT22;21916;52.428;13.302;2023-10-19T00:28:51;7.40;99.90
35796;DHT22;21916;52.428;13.302;2023-10-19T00:31:22;7.40;99.90
35796;DHT22;21916;52.428;13.302;2023-10-19T00:33:48;7.40;99.90
35796;DHT22;21916;52.428;13.302;2023-10-19T00:36:17;7.40;99.90
35796;DHT22;21916;52.428;13.302;2023-10-19T00:38:46;7.30;99.90
35796;DHT22;21916;52.428;13.302;2023-10-19T00:41:25;7.20;99.90
35796;DHT22;21916;52.428;13.302;2023-10-19T00:44:01;7.30;99.90
35796;DHT22;21916;52.428;13.302;2023-10-19T00:46:36;7.30;99.90
35796;DHT22;21916;52.428;13.302;2023-10-19T00:49:12;7.20;99.90
35796;DHT22;21916;52.428;13.302;2023-10-19T00:51:45;7.20;99.90
35796;DHT22;21916;52.428;13.302;2023-10-19T00:54:17;7.20;99.90
35796;DHT22;21916;52.428;13.302;2023-10-19T00:56:53;7.20;99.90
35796;DHT22;21916;52.428;13.302;2023-10-19T00:59:21;7.30;99.90
35796;DHT22;21916;52.428;13.302;2023-10-19T01:01:54;7.30;99.90
35796;DHT22;21916;52.428;13.302;2023-10-19T01:04:24;7.20;99.90
35796;DHT22;21916;52.428;13.302;2023-10-19T01:06:56;7.30;99.90
35796;DHT22;21916;52.428;13.302;2023-10-19T01:09:45;7.30;99.90
35796;DHT22;21916;52.428;13.302;2023-10-19T01:12:11;7.30;99.90
35796;DHT22;21916;52.428;13.302;2023-10-19T01:15:13;7.40;99.90
35796;DHT22;21916;52.428;13.302;2023-10-19T01:17:56;7.30;99.90
35796;DHT22;21916;52.428;13.302;2023-10-19T01:20:30;7.20;99.90
35796;DHT22;21916;52.428;13.302;2023-10-19T01:23:01;7.20;99.90
35796;DHT22;21916;52.428;13.302;2023-10-19T01:25:44;7.20;99.90
35796;DHT22;21916;52.428;13.302;2023-10-19T01:28:27;7.30;99.90
35796;DHT22;21916;52.428;13.302;2023-10-19T01:31:11;7.40;99.90
35796;DHT22;21916;52.428;13.302;2023-10-19T01:33:46;7.30;99.90
35796;DHT22;21916;52.428;13.302;2023-10-19T01:36:12;7.40;99.90
35796;DHT22;21916;52.428;13.302;2023-10-19T01:39:00;7.30;99.90
35796;DHT22;21916;52.428;13.302;2023-10-19T01:41:27;7.20;99.90
35796;DHT22;21916;52.428;13.302;2023-10-19T01:43:54;7.30;99.90
35796;DHT22;21916;52.428;13.302;2023-10-19T01:46:22;7.30;99.90
35796;DHT22;21916;52.428;13.302;2023-10-19T01:48:51;7.30;99.90
35796;DHT22;21916;52.428;13.302;2023-10-19T01:51:26;7.30;99.90
35796;DHT22;21916;52.428;13.302;2023-10-19T01:53:52;7.30;99.90
35796;DHT22;21916;52.428;13.302;2023-10-19T01:56:21;7.30;99.90
35796;DHT22;21916;52.428;13.302;2023-10-19T01:58:48;7.20;99.90
35796;DHT22;21916;52.428;13.302;2023-10-19T02:01:15;7.30;99.90
35796;DHT22;21916;52.428;13.302;2023-10-19T02:03:56;7.30;99.90
35796;DHT22;21916;52.428;13.302;2023-10-19T02:06:26;7.20;99.90
35796;DHT22;21916;52.428;13.302;2023-10-19T02:09:05;7.40;99.90
35796;DHT22;21916;52.428;13.302;2023-10-19T02:11:49;7.40;99.90
35796;DHT22;21916;52.428;13.302;2023-10-19T02:14:17;7.30;99.90
35796;DHT22;21916;52.428;13.302;2023-10-19T02:16:49;7.30;99.90
35796;DHT22;21916;52.428;13.302;2023-10-19T02:19:23;7.30;99.90
35796;DHT22;21916;52.428;13.302;2023-10-19T02:21:52;7.40;99.90
35796;DHT22;21916;52.428;13.302;2023-10-19T02:24:19;7.50;99.90
35796;DHT22;21916;52.428;13.302;2023-10-19T02:26:46;7.50;99.90
35796;DHT22;21916;52.428;13.302;2023-10-19T02:29:12;7.50;99.90
35796;DHT22;21916;52.428;13.302;2023-10-19T02:31:40;7.40;99.90
35796;DHT22;21916;52.428;13.302;2023-10-19T02:34:11;7.40;99.90
35796;DHT22;21916;52.428;13.302;2023-10-19T02:36:38;7.50;99.90
35796;DHT22;21916;52.428;13.302;2023-10-19T02:39:06;7.50;99.90
35796;DHT22;21916;52.428;13.302;2023-10-19T02:41:42;7.50;99.90
35796;DHT22;21916;52.428;13.302;2023-10-19T02:44:14;7.50;99.90
35796;DHT22;21916;52.428;13.302;2023-10-19T02:46:43;7.50;99.90
35796;DHT22;21916;52.428;13.302;2023-10-19T02:49:10;7.60;99.90
35796;DHT22;21916;52.428;13.302;2023-10-19T02:51:44;7.70;99.90
35796;DHT22;21916;52.428;13.302;2023-10-19T02:54:12;7.60;99.90
35796;DHT22;21916;52.428;13.302;2023-10-19T02:56:52;7.70;99.90
35796;DHT22;21916;52.428;13.302;2023-10-19T02:59:20;7.60;99.90
35796;DHT22;21916;52.428;13.302;2023-10-19T03:01:57;7.60;99.90
35796;DHT22;21916;52.428;13.302;2023-10-19T03:04:39;7.70;99.90
35796;DHT22;21916;52.428;13.302;2023-10-19T03:07:06;7.70;99.90
35796;DHT22;21916;52.428;13.302;2023-10-19T03:09:33;7.60;99.90
35796;DHT22;21916;52.428;13.302;2023-10-19T03:12:02;7.70;99.90
35796;DHT22;21916;52.428;13.302;2023-10-19T03:14:30;7.80;99.90
35796;DHT22;21916;52.428;13.302;2023-10-19T03:16:58;7.80;99.90
35796;DHT22;21916;52.428;13.302;2023-10-19T03:19:25;7.60;99.90
35796;DHT22;21916;52.428;13.302;2023-10-19T03:21:51;7.60;99.90
35796;DHT22;21916;52.428;13.302;2023-10-19T03:24:18;7.70;99.90
35796;DHT22;21916;52.428;13.302;2023-10-19T03:27:05;7.70;99.90
35796;DHT22;21916;52.428;13.302;2023-10-19T03:29:50;7.80;99.90
35796;DHT22;21916;52.428;13.302;2023-10-19T03:32:23;7.80;99.90
35796;DHT22;21916;52.428;13.302;2023-10-19T03:34:52;7.70;99.90
35796;DHT22;21916;52.428;13.302;2023-10-19T03:37:24;7.60;99.90
35796;DHT22;21916;52.428;13.302;2023-10-19T03:39:52;7.70;99.90
35796;DHT22;21916;52.428;13.302;2023-10-19T03:42:18;7.80;99.90
35796;DHT22;21916;52.428;13.302;2023-10-19T03:44:46;7.90;99.90
35796;DHT22;21916;52.428;13.302;2023-10-19T03:47:14;7.90;99.90
35796;DHT22;21916;52.428;13.302;2023-10-19T03:49:45;7.80;99.90
35796;DHT22;21916;52.428;13.302;2023-10-19T03:52:13;7.80;99.90
35796;DHT22;21916;52.428;13.302;2023-10-19T03:54:39;7.90;99.90
35796;DHT22;21916;52.428;13.302;2023-10-19T03:57:06;7.90;99.90
35796;DHT22;21916;52.428;13.302;2023-10-19T03:59:37;7.90;99.90
35796;DHT22;21916;52.428;13.302;2023-10-19T04:02:04;7.90;99.90
35796;DHT22;21916;52.428;13.302;2023-10-19T04:04:42;7.90;99.90
35796;DHT22;21916;52.428;13.302;2023-10-19T04:07:17;7.80;99.90
35796;DHT22;21916;52.428;13.302;2023-10-19T04:09:54;7.70;99.90
35796;DHT22;21916;52.428;13.302;2023-10-19T04:12:34;7.60;99.90
35796;DHT22;21916;52.428;13.302;2023-10-19T04:15:02;7.80;99.90
35796;DHT22;21916;52.428;13.302;2023-10-19T04:17:46;7.60;99.90
35796;DHT22;21916;52.428;13.302;2023-10-19T04:20:13;7.60;99.90
35796;DHT22;21916;52.428;13.302;2023-10-19T04:22:42;7.50;99.90
35796;DHT22;21916;52.428;13.302;2023-10-19T04:25:08;7.50;99.90
35796;DHT22;21916;52.428;13.302;2023-10-19T04:27:38;7.60;99.90
35796;DHT22;21916;52.428;13.302;2023-10-19T04:30:05;7.70;99.90
35796;DHT22;21916;52.428;13.302;2023-10-19T04:32:44;7.70;99.90
35796;DHT22;21916;52.428;13.302;2023-10-19T04:35:11;7.80;99.90
35796;DHT22;21916;52.428;13.302;2023-10-19T04:37:38;7.80;99.90
35796;DHT22;21916;52.428;13.302;2023-10-19T04:40:11;7.80;99.90
35796;DHT22;21916;52.428;13.302;2023-10-19T04:42:38;7.90;99.90
35796;DHT22;21916;52.428;13.302;2023-10-19T04:45:04;7.70;99.90
35796;DHT22;21916;52.428;13.302;2023-10-19T04:47:31;7.50;99.90
35796;DHT22;21916;52.428;13.302;2023-10-19T04:49:58;7.50;99.90
35796;DHT22;21916;52.428;13.302;2023-10-19T04:52:24;7.60;99.90
35796;DHT22;21916;52.428;13.302;2023-10-19T04:54:49;7.50;99.90
35796;DHT22;21916;52.428;13.302;2023-10-19T04:57:15;7.60;99.90
35796;DHT22;21916;52.428;13.302;2023-10-19T04:59:42;7.60;99.90
35796;DHT22;21916;52.428;13.302;2023-10-19T05:02:11;7.70;99.90
35796;DHT22;21916;52.428;13.302;2023-10-19T05:04:36;7.60;99.90
35796;DHT22;21916;52.428;13.302;2023-10-19T05:07:02;7.60;99.90
35796;DHT22;21916;52.428;13.302;2023-10-19T05:09:31;7.50;99.90
35796;DHT22;21916;52.428;13.302;2023-10-19T05:11:57;7.60;99.90
35796;DHT22;21916;52.428;13.302;2023-10-19T05:14:22;7.60;99.90
35796;DHT22;21916;52.428;13.302;2023-10-19T05:16:48;7.70;99.90
35796;DHT22;21916;52.428;13.302;2023-10-19T05:19:15;7.60;99.90
35796;DHT22;21916;52.428;13.302;2023-10-19T05:21:40;7.60;99.90
35796;DHT22;21916;52.428;13.302;2023-10-19T05:24:07;7.70;99.90
35796;DHT22;21916;52.428;13.302;2023-10-19T05:26:33;7.60;99.90
35796;DHT22;21916;52.428;13.302;2023-10-19T05:28:59;7.70;99.90
35796;DHT22;21916;52.428;13.302;2023-10-19T05:31:25;7.60;99.90
35796;DHT22;21916;52.428;13.302;2023-10-19T05:33:50;7.60;99.90
35796;DHT22;21916;52.428;13.302;2023-10-19T05:36:16;7.60;99.90
35796;DHT22;21916;52.428;13.302;2023-10-19T05:38:43;7.60;99.90
35796;DHT22;21916;52.428;13.302;2023-10-19T05:41:09;7.70;99.90
35796;DHT22;21916;52.428;13.302;2023-10-19T05:43:37;7.80;99.90
35796;DHT22;21916;52.428;13.302;2023-10-19T05:46:03;7.90;99.90
35796;DHT22;21916;52.428;13.302;2023-10-19T05:48:29;7.90;99.90
35796;DHT22;21916;52.428;13.302;2023-10-19T05:50:54;7.90;99.90
35796;DHT22;21916;52.428;13.302;2023-10-19T05:53:20;7.80;99.90
35796;DHT22;21916;52.428;13.302;2023-10-19T05:55:48;7.80;99.90
35796;DHT22;21916;52.428;13.302;2023-10-19T05:58:15;7.80;99.90
35796;DHT22;21916;52.428;13.302;2023-10-19T06:00:41;7.80;99.90
35796;DHT22;21916;52.428;13.302;2023-10-19T06:03:07;7.80;99.90
35796;DHT22;21916;52.428;13.302;2023-10-19T06:05:33;7.90;99.90
35796;DHT22;21916;52.428;13.302;2023-10-19T06:07:59;7.90;99.90
35796;DHT22;21916;52.428;13.302;2023-10-19T06:10:27;7.90;99.90
35796;DHT22;21916;52.428;13.302;2023-10-19T06:12:53;7.90;99.90
35796;DHT22;21916;52.428;13.302;2023-10-19T06:15:20;7.80;99.90
35796;DHT22;21916;52.428;13.302;2023-10-19T06:17:47;7.70;99.90
35796;DHT22;21916;52.428;13.302;2023-10-19T06:20:14;7.50;99.90
35796;DHT22;21916;52.428;13.302;2023-10-19T06:22:54;7.40;99.90
35796;DHT22;21916;52.428;13.302;2023-10-19T06:25:23;7.40;99.90
35796;DHT22;21916;52.428;13.302;2023-10-19T06:27:50;7.50;99.90
35796;DHT22;21916;52.428;13.302;2023-10-19T06:30:17;7.50;99.90
35796;DHT22;21916;52.428;13.302;2023-10-19T06:32:49;7.40;99.90
35796;DHT22;21916;52.428;13.302;2023-10-19T06:35:17;7.40;99.90
35796;DHT22;21916;52.428;13.302;2023-10-19T06:37:43;7.50;99.90
35796;DHT22;21916;52.428;13.302;2023-10-19T06:40:09;7.60;99.90
35796;DHT22;21916;52.428;13.302;2023-10-19T06:42:38;7.50;99.90
35796;DHT22;21916;52.428;13.302;2023-10-19T06:45:04;7.40;99.90
35796;DHT22;21916;52.428;13.302;2023-10-19T06:47:30;7.40;99.90
35796;DHT22;21916;52.428;13.302;2023-10-19T06:49:56;7.40;99.90
35796;DHT22;21916;52.428;13.302;2023-10-19T06:52:22;7.40;99.90
35796;DHT22;21916;52.428;13.302;2023-10-19T06:54:48;7.50;99.90
35796;DHT22;21916;52.428;13.302;2023-10-19T06:57:13;7.40;99.90
35796;DHT22;21916;52.428;13.302;2023-10-19T06:59:39;7.30;99.90
35796;DHT22;21916;52.428;13.302;2023-10-19T07:02:05;7.30;99.90
35796;DHT22;21916;52.428;13.302;2023-10-19T07:04:33;7.40;99.90
35796;DHT22;21916;52.428;13.302;2023-10-19T07:06:59;7.40;99.90
35796;DHT22;21916;52.428;13.302;2023-10-19T07:09:26;7.50;99.90
35796;DHT22;21916;52.428;13.302;2023-10-19T07:11:52;7.50;99.90
35796;DHT22;21916;52.428;13.302;2023-10-19T07:14:22;7.70;99.90
35796;DHT22;21916;52.428;13.302;2023-10-19T07:16:49;7.60;99.90
35796;DHT22;21916;52.428;13.302;2023-10-19T07:19:17;7.60;99.90
35796;DHT22;21916;52.428;13.302;2023-10-19T07:21:43;7.70;99.90
35796;DHT22;21916;52.428;13.302;2023-10-19T07:24:15;7.80;99.90
35796;DHT22;21916;52.428;13.302;2023-10-19T07:26:40;7.80;99.90
35796;DHT22;21916;52.428;13.302;2023-10-19T07:29:22;7.80;99.90
35796;DHT22;21916;52.428;13.302;2023-10-19T07:31:47;7.90;99.90
35796;DHT22;21916;52.428;13.302;2023-10-19T07:34:13;8.00;99.90
35796;DHT22;21916;52.428;13.302;2023-10-19T07:36:41;7.90;99.90
35796;DHT22;21916;52.428;13.302;2023-10-19T07:39:10;8.00;99.90
35796;DHT22;21916;52.428;13.302;2023-10-19T07:41:44;8.00;99.90
35796;DHT22;21916;52.428;13.302;2023-10-19T07:44:11;7.90;99.90
35796;DHT22;21916;52.428;13.302;2023-10-19T07:46:37;8.10;99.90
35796;DHT22;21916;52.428;13.302;2023-10-19T07:49:03;8.10;99.90
35796;DHT22;21916;52.428;13.302;2023-10-19T07:51:29;8.20;99.90
35796;DHT22;21916;52.428;13.302;2023-10-19T07:53:55;8.20;99.90
35796;DHT22;21916;52.428;13.302;2023-10-19T07:56:22;8.30;99.90
35796;DHT22;21916;52.428;13.302;2023-10-19T07:58:49;8.20;99.90
35796;DHT22;21916;52.428;13.302;2023-10-19T08:01:15;8.20;99.90
35796;DHT22;21916;52.428;13.302;2023-10-19T08:03:41;8.20;99.90
35796;DHT22;21916;52.428;13.302;2023-10-19T08:06:06;8.20;99.90
35796;DHT22;21916;52.428;13.302;2023-10-19T08:08:32;8.30;99.90
35796;DHT22;21916;52.428;13.302;2023-10-19T08:11:01;8.20;99.90
35796;DHT22;21916;52.428;13.302;2023-10-19T08:13:27;8.30;99.90
35796;DHT22;21916;52.428;13.302;2023-10-19T08:15:53;8.30;99.90
35796;DHT22;21916;52.428;13.302;2023-10-19T08:18:19;8.30;99.90
35796;DHT22;21916;52.428;13.302;2023-10-19T08:20:45;8.30;99.90
35796;DHT22;21916;52.428;13.302;2023-10-19T08:23:12;8.30;99.90
35796;DHT22;21916;52.428;13.302;2023-10-19T08:25:42;8.40;99.90
35796;DHT22;21916;52.428;13.302;2023-10-19T08:28:09;8.50;99.90
35796;DHT22;21916;52.428;13.302;2023-10-19T08:30:37;8.40;99.90
35796;DHT22;21916;52.428;13.302;2023-10-19T08:33:03;8.50;99.90
35796;DHT22;21916;52.428;13.302;2023-10-19T08:35:29;8.50;99.90
35796;DHT22;21916;52.428;13.302;2023-10-19T08:37:57;8.70;99.90
35796;DHT22;21916;52.428;13.302;2023-10-19T08:40:24;8.70;99.90
35796;DHT22;21916;52.428;13.302;2023-10-19T08:42:52;8.80;99.90
35796;DHT22;21916;52.428;13.302;2023-10-19T08:45:19;8.70;99.90
35796;DHT22;21916;52.428;13.302;2023-10-19T08:47:48;8.70;99.90
35796;DHT22;21916;52.428;13.302;2023-10-19T08:50:19;8.60;99.90
35796;DHT22;21916;52.428;13.302;2023-10-19T08:52:52;8.60;99.90
35796;DHT22;21916;52.428;13.302;2023-10-19T08:55:19;8.70;99.90
35796;DHT22;21916;52.428;13.302;2023-10-19T08:57:46;8.80;99.90
35796;DHT22;21916;52.428;13.302;2023-10-19T09:00:15;8.80;99.90
35796;DHT22;21916;52.428;13.302;2023-10-19T09:02:45;8.80;99.90
35796;DHT22;21916;52.428;13.302;2023-10-19T09:05:11;8.90;99.90
35796;DHT22;21916;52.428;13.302;2023-10-19T09:07:52;8.90;99.90
35796;DHT22;21916;52.428;13.302;2023-10-19T09:10:28;8.90;99.90
35796;DHT22;21916;52.428;13.302;2023-10-19T09:13:14;9.00;99.90
35796;DHT22;21916;52.428;13.302;2023-10-19T09:15:44;9.10;99.90
35796;DHT22;21916;52.428;13.302;2023-10-19T09:18:23;9.00;99.90
35796;DHT22;21916;52.428;13.302;2023-10-19T09:20:50;9.00;99.90
35796;DHT22;21916;52.428;13.302;2023-10-19T09:23:24;8.90;99.90
35796;DHT22;21916;52.428;13.302;2023-10-19T09:25:58;8.90;99.90
35796;DHT22;21916;52.428;13.302;2023-10-19T09:28:24;9.00;99.90
35796;DHT22;21916;52.428;13.302;2023-10-19T09:30:51;9.00;99.90
35796;DHT22;21916;52.428;13.302;2023-10-19T09:33:17;9.00;99.90
35796;DHT22;21916;52.428;13.302;2023-10-19T09:35:45;9.20;99.90
35796;DHT22;21916;52.428;13.302;2023-10-19T09:38:16;9.10;99.90
35796;DHT22;21916;52.428;13.302;2023-10-19T09:40:51;9.10;99.90
35796;DHT22;21916;52.428;13.302;2023-10-19T09:43:28;9.00;99.90
35796;DHT22;21916;52.428;13.302;2023-10-19T09:45:57;9.00;99.90
35796;DHT22;21916;52.428;13.302;2023-10-19T09:48:26;9.00;99.90
35796;DHT22;21916;52.428;13.302;2023-10-19T09:50:54;9.10;99.90
35796;DHT22;21916;52.428;13.302;2023-10-19T09:53:23;9.10;99.90
35796;DHT22;21916;52.428;13.302;2023-10-19T09:55:51;8.90;99.90
35796;DHT22;21916;52.428;13.302;2023-10-19T09:58:22;9.00;99.90
35796;DHT22;21916;52.428;13.302;2023-10-19T10:00:50;8.90;99.90
35796;DHT22;21916;52.428;13.302;2023-10-19T10:03:48;8.90;99.90
35796;DHT22;21916;52.428;13.302;2023-10-19T10:06:17;9.00;99.90
35796;DHT22;21916;52.428;13.302;2023-10-19T10:08:46;8.80;99.90
35796;DHT22;21916;52.428;13.302;2023-10-19T10:13:44;8.80;99.90
35796;DHT22;21916;52.428;13.302;2023-10-19T10:16:18;8.90;99.90
35796;DHT22;21916;52.428;13.302;2023-10-19T10:18:46;8.90;99.90
35796;DHT22;21916;52.428;13.302;2023-10-19T10:21:21;8.80;99.90
35796;DHT22;21916;52.428;13.302;2023-10-19T10:23:55;8.90;99.90
35796;DHT22;21916;52.428;13.302;2023-10-19T10:26:22;8.90;99.90
35796;DHT22;21916;52.428;13.302;2023-10-19T10:31:47;8.80;99.90
35796;DHT22;21916;52.428;13.302;2023-10-19T10:37:09;8.80;99.90
35796;DHT22;21916;52.428;13.302;2023-10-19T10:39:37;8.70;99.90
35796;DHT22;21916;52.428;13.302;2023-10-19T10:42:06;8.90;99.90
35796;DHT22;21916;52.428;13.302;2023-10-19T10:44:47;8.90;99.90
35796;DHT22;21916;52.428;13.302;2023-10-19T10:50:00;8.80;99.90
35796;DHT22;21916;52.428;13.302;2023-10-19T10:52:31;8.80;99.90
35796;DHT22;21916;52.428;13.302;2023-10-19T10:54:58;8.70;99.90
35796;DHT22;21916;52.428;13.302;2023-10-19T10:57:32;8.80;99.90
35796;DHT22;21916;52.428;13.302;2023-10-19T11:00:08;8.80;99.90
35796;DHT22;21916;52.428;13.302;2023-10-19T11:02:42;8.90;99.90
35796;DHT22;21916;52.428;13.302;2023-10-19T11:05:13;8.90;99.90
35796;DHT22;21916;52.428;13.302;2023-10-19T11:08:02;9.00;99.90
35796;DHT22;21916;52.428;13.302;2023-10-19T11:10:31;9.00;99.90
35796;DHT22;21916;52.428;13.302;2023-10-19T11:13:16;9.10;99.90
35796;DHT22;21916;52.428;13.302;2023-10-19T11:15:50;9.10;99.90
35796;DHT22;21916;52.428;13.302;2023-10-19T11:21:09;9.00;99.90
35796;DHT22;21916;52.428;13.302;2023-10-19T11:23:39;9.00;99.90
35796;DHT22;21916;52.428;13.302;2023-10-19T11:26:06;9.00;99.90
35796;DHT22;21916;52.428;13.302;2023-10-19T11:28:33;9.00;99.90
35796;DHT22;21916;52.428;13.302;2023-10-19T11:31:13;9.10;99.90
35796;DHT22;21916;52.428;13.302;2023-10-19T11:33:40;9.20;99.90
35796;DHT22;21916;52.428;13.302;2023-10-19T11:36:07;9.00;99.90
35796;DHT22;21916;52.428;13.302;2023-10-19T11:38:32;9.00;99.90
35796;DHT22;21916;52.428;13.302;2023-10-19T11:40:58;8.90;99.90
35796;DHT22;21916;52.428;13.302;2023-10-19T11:43:24;9.00;99.90
35796;DHT22;21916;52.428;13.302;2023-10-19T11:45:49;9.00;99.90
35796;DHT22;21916;52.428;13.302;2023-10-19T11:48:15;9.00;99.90
35796;DHT22;21916;52.428;13.302;2023-10-19T11:50:41;8.90;99.90
35796;DHT22;21916;52.428;13.302;2023-10-19T11:53:07;8.80;99.90
35796;DHT22;21916;52.428;13.302;2023-10-19T11:55:35;8.80;99.90
35796;DHT22;21916;52.428;13.302;2023-10-19T11:58:01;8.90;99.90
35796;DHT22;21916;52.428;13.302;2023-10-19T12:00:26;8.80;99.90
35796;DHT22;21916;52.428;13.302;2023-10-19T12:02:59;8.90;99.90
35796;DHT22;21916;52.428;13.302;2023-10-19T12:05:25;9.00;99.90
35796;DHT22;21916;52.428;13.302;2023-10-19T12:07:51;9.00;99.90
35796;DHT22;21916;52.428;13.302;2023-10-19T12:10:17;9.10;99.90
35796;DHT22;21916;52.428;13.302;2023-10-19T12:12:46;9.10;99.90
35796;DHT22;21916;52.428;13.302;2023-10-19T12:15:11;8.90;99.90
35796;DHT22;21916;52.428;13.302;2023-10-19T12:17:38;9.00;99.90
35796;DHT22;21916;52.428;13.302;2023-10-19T12:20:04;9.00;99.90
35796;DHT22;21916;52.428;13.302;2023-10-19T12:22:32;9.20;99.90
35796;DHT22;21916;52.428;13.302;2023-10-19T12:25:04;9.20;99.90
35796;DHT22;21916;52.428;13.302;2023-10-19T12:27:30;9.10;99.90
35796;DHT22;21916;52.428;13.302;2023-10-19T12:29:56;9.00;99.90
35796;DHT22;21916;52.428;13.302;2023-10-19T12:32:24;9.00;99.90
35796;DHT22;21916;52.428;13.302;2023-10-19T12:34:49;9.10;99.90
35796;DHT22;21916;52.428;13.302;2023-10-19T12:37:19;9.10;99.90
35796;DHT22;21916;52.428;13.302;2023-10-19T12:39:45;9.20;99.90
35796;DHT22;21916;52.428;13.302;2023-10-19T12:42:14;9.10;99.90
35796;DHT22;21916;52.428;13.302;2023-10-19T12:44:40;8.90;99.90
35796;DHT22;21916;52.428;13.302;2023-10-19T12:47:10;9.00;99.90
35796;DHT22;21916;52.428;13.302;2023-10-19T12:49:42;9.00;99.90
35796;DHT22;21916;52.428;13.302;2023-10-19T12:52:08;9.10;99.90
35796;DHT22;21916;52.428;13.302;2023-10-19T12:54:37;9.20;99.90
35796;DHT22;21916;52.428;13.302;2023-10-19T12:57:06;9.10;99.90
35796;DHT22;21916;52.428;13.302;2023-10-19T12:59:34;9.10;99.90
35796;DHT22;21916;52.428;13.302;2023-10-19T13:02:03;9.20;99.90
35796;DHT22;21916;52.428;13.302;2023-10-19T13:04:29;9.20;99.90
35796;DHT22;21916;52.428;13.302;2023-10-19T13:06:56;9.10;99.90
35796;DHT22;21916;52.428;13.302;2023-10-19T13:09:26;9.00;99.90
35796;DHT22;21916;52.428;13.302;2023-10-19T13:11:57;9.20;99.90
35796;DHT22;21916;52.428;13.302;2023-10-19T13:14:23;9.20;99.90
35796;DHT22;21916;52.428;13.302;2023-10-19T13:16:49;9.20;99.90
35796;DHT22;21916;52.428;13.302;2023-10-19T13:19:19;9.20;99.90
35796;DHT22;21916;52.428;13.302;2023-10-19T13:21:50;9.20;99.90
35796;DHT22;21916;52.428;13.302;2023-10-19T13:24:16;9.20;99.90
35796;DHT22;21916;52.428;13.302;2023-10-19T13:26:42;9.20;99.90
35796;DHT22;21916;52.428;13.302;2023-10-19T13:29:12;9.10;99.90
35796;DHT22;21916;52.428;13.302;2023-10-19T13:31:38;9.20;99.90
35796;DHT22;21916;52.428;13.302;2023-10-19T13:34:04;9.00;99.90
35796;DHT22;21916;52.428;13.302;2023-10-19T13:36:36;9.00;99.90
35796;DHT22;21916;52.428;13.302;2023-10-19T13:39:02;9.00;99.90
35796;DHT22;21916;52.428;13.302;2023-10-19T13:41:29;9.10;99.90
35796;DHT22;21916;52.428;13.302;2023-10-19T13:43:55;9.10;99.90
35796;DHT22;21916;52.428;13.302;2023-10-19T13:46:27;9.10;99.90
35796;DHT22;21916;52.428;13.302;2023-10-19T13:48:56;9.00;99.90
35796;DHT22;21916;52.428;13.302;2023-10-19T13:51:30;9.00;99.90
35796;DHT22;21916;52.428;13.302;2023-10-19T13:53:56;9.00;99.90
35796;DHT22;21916;52.428;13.302;2023-10-19T13:56:22;8.90;99.90
35796;DHT22;21916;52.428;13.302;2023-10-19T13:58:49;8.90;99.90
35796;DHT22;21916;52.428;13.302;2023-10-19T14:01:16;9.00;99.90
35796;DHT22;21916;52.428;13.302;2023-10-19T14:03:43;8.90;99.90
35796;DHT22;21916;52.428;13.302;2023-10-19T14:06:13;9.00;99.90
35796;DHT22;21916;52.428;13.302;2023-10-19T14:08:39;8.80;99.90
35796;DHT22;21916;52.428;13.302;2023-10-19T14:11:05;8.80;99.90
35796;DHT22;21916;52.428;13.302;2023-10-19T14:13:32;8.80;99.90
35796;DHT22;21916;52.428;13.302;2023-10-19T14:15:57;8.90;99.90
35796;DHT22;21916;52.428;13.302;2023-10-19T14:18:23;8.80;99.90
35796;DHT22;21916;52.428;13.302;2023-10-19T14:20:49;8.80;99.90
35796;DHT22;21916;52.428;13.302;2023-10-19T14:23:14;8.70;99.90
35796;DHT22;21916;52.428;13.302;2023-10-19T14:25:40;8.60;99.90
35796;DHT22;21916;52.428;13.302;2023-10-19T14:28:08;8.70;99.90
35796;DHT22;21916;52.428;13.302;2023-10-19T14:30:35;8.60;99.90
35796;DHT22;21916;52.428;13.302;2023-10-19T14:33:02;8.70;99.90
35796;DHT22;21916;52.428;13.302;2023-10-19T14:35:28;8.70;99.90
35796;DHT22;21916;52.428;13.302;2023-10-19T14:37:55;8.60;99.90
35796;DHT22;21916;52.428;13.302;2023-10-19T14:40:23;8.70;99.90
35796;DHT22;21916;52.428;13.302;2023-10-19T14:42:54;8.60;99.90
35796;DHT22;21916;52.428;13.302;2023-10-19T14:45:21;8.70;99.90
35796;DHT22;21916;52.428;13.302;2023-10-19T14:47:51;8.80;99.90
35796;DHT22;21916;52.428;13.302;2023-10-19T14:50:18;8.70;99.90
35796;DHT22;21916;52.428;13.302;2023-10-19T14:52:45;8.70;99.90
35796;DHT22;21916;52.428;13.302;2023-10-19T14:55:11;8.60;99.90
35796;DHT22;21916;52.428;13.302;2023-10-19T14:57:39;8.60;99.90
35796;DHT22;21916;52.428;13.302;2023-10-19T15:00:06;8.60;99.90
35796;DHT22;21916;52.428;13.302;2023-10-19T15:02:48;8.60;99.90
35796;DHT22;21916;52.428;13.302;2023-10-19T15:05:15;8.60;99.90
35796;DHT22;21916;52.428;13.302;2023-10-19T15:07:45;8.60;99.90
35796;DHT22;21916;52.428;13.302;2023-10-19T15:10:12;8.50;99.90
35796;DHT22;21916;52.428;13.302;2023-10-19T15:12:38;8.70;99.90
35796;DHT22;21916;52.428;13.302;2023-10-19T15:15:08;8.70;99.90
35796;DHT22;21916;52.428;13.302;2023-10-19T15:17:37;8.80;99.90
35796;DHT22;21916;52.428;13.302;2023-10-19T15:20:07;8.60;99.90
35796;DHT22;21916;52.428;13.302;2023-10-19T15:22:39;8.70;99.90
35796;DHT22;21916;52.428;13.302;2023-10-19T15:25:05;8.60;99.90
35796;DHT22;21916;52.428;13.302;2023-10-19T15:27:36;8.60;99.90
35796;DHT22;21916;52.428;13.302;2023-10-19T15:30:03;8.50;99.90
35796;DHT22;21916;52.428;13.302;2023-10-19T15:32:32;8.60;99.90
35796;DHT22;21916;52.428;13.302;2023-10-19T15:34:58;8.40;99.90
35796;DHT22;21916;52.428;13.302;2023-10-19T15:37:24;8.30;99.90
35796;DHT22;21916;52.428;13.302;2023-10-19T15:39:50;8.40;99.90
35796;DHT22;21916;52.428;13.302;2023-10-19T15:42:17;8.50;99.90
35796;DHT22;21916;52.428;13.302;2023-10-19T15:44:44;8.50;99.90
35796;DHT22;21916;52.428;13.302;2023-10-19T15:47:11;8.60;99.90
35796;DHT22;21916;52.428;13.302;2023-10-19T15:49:46;8.50;99.90
35796;DHT22;21916;52.428;13.302;2023-10-19T15:52:19;8.50;99.90
35796;DHT22;21916;52.428;13.302;2023-10-19T15:54:46;8.70;99.90
35796;DHT22;21916;52.428;13.302;2023-10-19T15:57:12;8.50;99.90